createdAt,value
2018-07-22T00:00:44.491Z,90.60
2018-07-22T00:03:13.474Z,90.70
2018-07-22T00:05:42.535Z,90.70
2018-07-22T00:08:11.569Z,90.70
2018-07-22T00:10:40.563Z,90.70
2018-07-22T00:13:09.488Z,90.70
2018-07-22T00:15:38.393Z,90.60
2018-07-22T00:18:07.464Z,90.80
2018-07-22T00:20:36.492Z,90.70
2018-07-22T00:30:31.108Z,91.10
2018-07-22T00:33:00.103Z,90.80
2018-07-22T00:35:29.116Z,90.80
2018-07-22T00:37:58.109Z,90.80
2018-07-22T00:40:27.062Z,91.00
2018-07-22T00:42:56.111Z,91.00
2018-07-22T00:45:25.111Z,91.00
2018-07-22T00:50:22.611Z,91.00
2018-07-22T00:52:51.701Z,91.10
2018-07-22T00:55:20.689Z,91.40
2018-07-22T00:57:49.711Z,91.00
2018-07-22T01:00:19.580Z,91.00
2018-07-22T01:02:48.631Z,91.00
2018-07-22T01:05:17.650Z,91.10
2018-07-22T01:07:46.637Z,91.00
2018-07-22T01:10:15.686Z,91.00
2018-07-22T01:12:44.684Z,91.00
2018-07-22T01:15:14.066Z,91.00
2018-07-22T01:17:43.101Z,91.00
2018-07-22T01:20:12.170Z,90.90
2018-07-22T01:22:41.090Z,90.90
2018-07-22T01:25:10.051Z,91.00
2018-07-22T01:27:39.074Z,91.00
2018-07-22T01:30:09.527Z,91.00
2018-07-22T01:32:38.668Z,91.00
2018-07-22T01:35:07.700Z,91.10
2018-07-22T01:37:36.649Z,91.00
2018-07-22T01:40:05.794Z,91.00
2018-07-22T01:42:34.790Z,91.00
2018-07-22T01:45:03.795Z,90.90
2018-07-22T01:47:32.796Z,90.80
2018-07-22T01:50:01.704Z,90.70
2018-07-22T01:52:30.750Z,90.80
2018-07-22T01:54:59.691Z,90.90
2018-07-22T01:57:28.677Z,91.00
2018-07-22T01:59:57.622Z,91.00
2018-07-22T02:02:26.538Z,91.00
2018-07-22T02:04:55.488Z,91.00
2018-07-22T02:07:24.491Z,91.00
2018-07-22T02:09:53.492Z,91.00
2018-07-22T02:12:22.479Z,91.10
2018-07-22T02:14:51.537Z,91.20
2018-07-22T02:17:20.508Z,91.20
2018-07-22T02:19:49.514Z,91.20
2018-07-22T02:22:18.505Z,91.20
2018-07-22T02:27:16.351Z,91.30
2018-07-22T02:29:45.274Z,91.40
2018-07-22T02:32:14.207Z,91.30
2018-07-22T02:34:43.249Z,91.30
2018-07-22T02:37:12.237Z,91.30
2018-07-22T02:39:41.211Z,91.30
2018-07-22T02:42:10.168Z,91.30
2018-07-22T02:44:39.258Z,91.30
2018-07-22T02:47:08.331Z,91.60
2018-07-22T02:49:37.289Z,91.40
2018-07-22T02:52:06.378Z,91.40
2018-07-22T02:54:35.351Z,91.40
2018-07-22T02:57:04.203Z,91.50
2018-07-22T02:59:33.191Z,91.60
2018-07-22T03:02:02.390Z,91.50
2018-07-22T03:06:59.712Z,91.60
2018-07-22T03:09:28.733Z,91.60
2018-07-22T03:11:57.672Z,91.70
2018-07-22T03:14:26.633Z,91.80
2018-07-22T03:16:55.580Z,91.80
2018-07-22T03:19:24.572Z,91.90
2018-07-22T03:21:53.510Z,91.90
2018-07-22T03:24:22.472Z,91.90
2018-07-22T03:26:51.605Z,91.90
2018-07-22T03:29:21.032Z,91.90
2018-07-22T03:31:49.946Z,91.90
2018-07-22T03:34:18.902Z,91.90
2018-07-22T03:39:16.290Z,91.90
2018-07-22T03:44:13.712Z,91.90
2018-07-22T03:46:42.611Z,91.90
2018-07-22T03:49:11.591Z,91.80
2018-07-22T03:51:40.612Z,91.90
2018-07-22T03:54:09.553Z,91.70
2018-07-22T03:56:38.518Z,91.70
2018-07-22T03:59:07.631Z,91.70
2018-07-22T04:01:36.631Z,91.70
2018-07-22T04:04:05.546Z,91.70
2018-07-22T04:06:34.511Z,91.60
2018-07-22T04:09:03.622Z,91.90
2018-07-22T04:11:32.554Z,91.50
2018-07-22T04:14:01.523Z,91.60
2018-07-22T04:16:30.523Z,91.60
2018-07-22T04:18:59.511Z,91.40
2018-07-22T04:21:28.503Z,91.00
2018-07-22T04:23:57.531Z,90.80
2018-07-22T04:26:26.531Z,90.70
2018-07-22T04:28:55.513Z,90.10
2018-07-22T04:31:24.533Z,90.10
2018-07-22T04:33:53.458Z,90.00
2018-07-22T04:36:22.458Z,90.30
2018-07-22T04:38:51.580Z,90.10
2018-07-22T04:41:20.450Z,90.20
2018-07-22T04:43:49.459Z,90.10
2018-07-22T04:46:18.436Z,90.30
2018-07-22T04:48:47.471Z,90.40
2018-07-22T04:53:44.891Z,90.00
2018-07-22T04:56:13.918Z,90.10
2018-07-22T04:58:42.851Z,90.20
2018-07-22T05:01:11.857Z,90.30
2018-07-22T05:03:40.808Z,90.40
2018-07-22T05:06:09.673Z,90.50
2018-07-22T05:08:38.640Z,90.30
2018-07-22T05:11:07.623Z,90.20
2018-07-22T05:13:36.596Z,90.10
2018-07-22T05:18:34.047Z,90.00
2018-07-22T05:21:03.007Z,89.00
2018-07-22T05:23:32.053Z,87.70
2018-07-22T05:26:01.014Z,86.40
2018-07-22T05:28:29.933Z,85.70
2018-07-22T05:33:27.389Z,85.00
2018-07-22T05:35:56.355Z,84.90
2018-07-22T05:38:26.698Z,84.10
2018-07-22T05:40:55.633Z,82.90
2018-07-22T05:45:53.036Z,83.10
2018-07-22T05:48:28.460Z,82.50
2018-07-22T05:50:57.393Z,81.80
2018-07-22T05:53:26.308Z,82.70
2018-07-22T05:55:55.211Z,83.80
2018-07-22T05:58:24.175Z,83.80
2018-07-22T06:00:53.140Z,82.00
2018-07-22T06:03:22.130Z,83.30
2018-07-22T06:05:51.351Z,80.00
2018-07-22T06:08:20.241Z,81.10
2018-07-22T06:10:49.191Z,80.20
2018-07-22T06:13:18.156Z,79.50
2018-07-22T06:15:47.035Z,79.60
2018-07-22T06:18:16.031Z,80.00
2018-07-22T06:20:44.963Z,80.40
2018-07-22T06:23:13.809Z,79.20
2018-07-22T06:25:42.931Z,80.20
2018-07-22T06:30:40.436Z,80.70
2018-07-22T06:33:09.394Z,79.50
2018-07-22T06:38:06.833Z,80.00
2018-07-22T06:40:35.848Z,78.70
2018-07-22T06:43:04.728Z,78.50
2018-07-22T06:45:33.651Z,79.40
2018-07-22T06:48:02.602Z,79.30
2018-07-22T06:50:31.572Z,79.30
2018-07-22T06:53:00.563Z,78.60
2018-07-22T06:55:29.499Z,77.20
2018-07-22T06:57:58.391Z,76.10
2018-07-22T07:00:27.346Z,77.10
2018-07-22T07:02:56.309Z,75.90
2018-07-22T07:05:25.210Z,75.90
2018-07-22T07:07:54.231Z,77.40
2018-07-22T07:10:23.190Z,77.90
2018-07-22T07:12:52.130Z,76.80
2018-07-22T07:15:21.054Z,75.40
2018-07-22T07:17:50.067Z,76.10
2018-07-22T07:23:22.710Z,75.20
2018-07-22T07:25:51.694Z,74.90
2018-07-22T07:28:20.672Z,74.70
2018-07-22T07:30:49.686Z,75.00
2018-07-22T07:33:18.904Z,74.90
2018-07-22T07:35:47.949Z,75.80
2018-07-22T07:38:16.975Z,75.70
2018-07-22T07:40:47.603Z,74.10
2018-07-22T07:43:16.806Z,73.20
2018-07-22T07:45:46.023Z,72.20
2018-07-22T07:48:15.068Z,74.10
2018-07-22T07:50:44.256Z,72.20
2018-07-22T07:53:13.272Z,72.90
2018-07-22T07:55:42.316Z,71.90
2018-07-22T07:58:11.273Z,72.80
2018-07-22T08:00:40.347Z,71.60
2018-07-22T08:03:09.338Z,71.40
2018-07-22T08:05:38.400Z,73.00
2018-07-22T08:08:07.332Z,72.60
2018-07-22T08:10:36.361Z,73.20
2018-07-22T08:13:05.389Z,74.00
2018-07-22T08:15:34.771Z,73.80
2018-07-22T08:18:03.783Z,74.60
2018-07-22T08:20:32.813Z,75.30
2018-07-22T08:23:01.774Z,75.50
2018-07-22T08:25:30.783Z,77.40
2018-07-22T08:27:59.933Z,77.70
2018-07-22T08:30:29.002Z,78.50
2018-07-22T08:32:57.955Z,78.90
2018-07-22T08:35:26.978Z,79.20
2018-07-22T08:37:56.293Z,80.40
2018-07-22T08:40:25.346Z,79.70
2018-07-22T08:45:23.105Z,79.00
2018-07-22T08:47:52.099Z,80.40
2018-07-22T08:52:49.777Z,79.40
2018-07-22T08:55:18.731Z,79.10
2018-07-22T08:57:47.791Z,78.90
2018-07-22T09:00:16.739Z,79.60
2018-07-22T09:02:45.811Z,79.80
2018-07-22T09:05:14.854Z,78.80
2018-07-22T09:07:43.932Z,78.20
2018-07-22T09:10:13.149Z,77.70
2018-07-22T09:12:42.302Z,76.50
2018-07-22T09:15:11.402Z,77.60
2018-07-22T09:17:40.516Z,75.60
2018-07-22T09:20:09.457Z,72.10
2018-07-22T09:22:38.512Z,70.20
2018-07-22T09:25:07.521Z,71.30
2018-07-22T09:27:36.517Z,71.00
2018-07-22T09:30:05.668Z,70.00
2018-07-22T09:32:34.781Z,70.30
2018-07-22T09:35:04.420Z,69.70
2018-07-22T09:37:33.490Z,71.10
2018-07-22T09:40:02.489Z,71.40
2018-07-22T09:42:31.933Z,70.20
2018-07-22T09:47:29.514Z,71.10
2018-07-22T09:49:58.612Z,70.70
2018-07-22T09:52:27.663Z,70.70
2018-07-22T09:54:56.667Z,69.20
2018-07-22T09:57:25.611Z,70.50
2018-07-22T09:59:54.568Z,70.30
2018-07-22T10:02:23.638Z,69.00
2018-07-22T10:04:52.578Z,68.90
2018-07-22T10:07:21.496Z,68.60
2018-07-22T10:09:50.436Z,67.90
2018-07-22T10:12:19.405Z,66.90
2018-07-22T10:14:48.524Z,63.90
2018-07-22T10:17:17.437Z,64.60
2018-07-22T10:19:46.564Z,65.00
2018-07-22T10:22:15.630Z,62.60
2018-07-22T10:24:44.511Z,61.80
2018-07-22T10:29:42.012Z,59.50
2018-07-22T10:32:10.909Z,59.00
2018-07-22T10:34:39.844Z,57.80
2018-07-22T10:37:08.771Z,55.60
2018-07-22T10:42:06.364Z,56.80
2018-07-22T10:44:35.273Z,55.40
2018-07-22T10:47:04.343Z,53.80
2018-07-22T10:49:33.348Z,55.40
2018-07-22T10:52:02.609Z,55.30
2018-07-22T10:54:31.566Z,56.80
2018-07-22T10:57:00.603Z,57.00
2018-07-22T10:59:29.598Z,57.60
2018-07-22T11:01:58.618Z,59.00
2018-07-22T11:04:27.605Z,63.00
2018-07-22T11:06:56.753Z,64.40
2018-07-22T11:09:25.606Z,65.80
2018-07-22T11:11:54.598Z,67.00
2018-07-22T11:14:23.638Z,67.20
2018-07-22T11:16:52.734Z,67.00
2018-07-22T11:19:21.869Z,65.20
2018-07-22T11:21:51.174Z,65.70
2018-07-22T11:24:20.371Z,65.00
2018-07-22T11:26:49.327Z,63.60
2018-07-22T11:29:18.356Z,64.40
2018-07-22T11:31:47.399Z,63.10
2018-07-22T11:34:16.464Z,65.80
2018-07-22T11:36:45.451Z,66.50
2018-07-22T11:39:14.474Z,67.50
2018-07-22T11:41:43.513Z,67.00
2018-07-22T11:44:12.663Z,66.60
2018-07-22T11:46:41.651Z,68.10
2018-07-22T11:49:10.676Z,67.70
2018-07-22T11:51:39.788Z,70.20
2018-07-22T11:54:08.992Z,69.50
2018-07-22T11:56:38.006Z,68.90
2018-07-22T11:59:07.271Z,67.30
2018-07-22T12:01:36.247Z,67.60
2018-07-22T12:04:06.588Z,65.60
2018-07-22T12:06:35.736Z,64.30
2018-07-22T12:09:06.731Z,63.80
2018-07-22T12:11:35.755Z,62.30
2018-07-22T12:14:04.862Z,62.20
2018-07-22T12:19:02.412Z,63.20
2018-07-22T12:21:31.390Z,62.00
2018-07-22T12:24:00.390Z,60.50
2018-07-22T12:26:29.513Z,60.90
2018-07-22T12:31:27.194Z,62.50
2018-07-22T12:33:56.523Z,61.50
2018-07-22T12:36:25.587Z,62.20
2018-07-22T12:38:54.682Z,60.60
2018-07-22T12:43:52.308Z,62.70
2018-07-22T12:46:21.370Z,63.50
2018-07-22T12:48:50.411Z,64.40
2018-07-22T12:51:19.503Z,64.20
2018-07-22T12:53:48.555Z,64.10
2018-07-22T12:56:17.594Z,62.70
2018-07-22T12:58:47.572Z,61.80
2018-07-22T13:01:16.602Z,63.20
2018-07-22T13:03:45.667Z,62.40
2018-07-22T13:06:14.705Z,63.30
2018-07-22T13:08:43.713Z,63.20
2018-07-22T13:11:12.830Z,62.20
2018-07-22T13:13:41.843Z,61.10
2018-07-22T13:16:10.885Z,60.30
2018-07-22T13:18:39.792Z,60.00
2018-07-22T13:21:09.226Z,59.30
2018-07-22T13:23:38.281Z,58.20
2018-07-22T13:26:07.327Z,58.50
2018-07-22T13:28:36.279Z,58.60
2018-07-22T13:31:05.310Z,59.30
2018-07-22T13:33:34.402Z,59.70
2018-07-22T13:36:03.501Z,61.10
2018-07-22T13:38:32.528Z,62.80
2018-07-22T13:41:01.477Z,61.50
2018-07-22T13:43:30.445Z,60.70
2018-07-22T13:45:59.549Z,59.50
2018-07-22T13:48:28.870Z,59.70
2018-07-22T13:50:57.915Z,59.90
2018-07-22T13:53:26.930Z,60.90
2018-07-22T13:55:55.926Z,61.60
2018-07-22T13:58:24.925Z,61.40
2018-07-22T14:00:53.913Z,61.40
2018-07-22T14:03:23.010Z,63.30
2018-07-22T14:05:52.144Z,63.90
2018-07-22T14:08:21.139Z,64.90
2018-07-22T14:10:50.156Z,65.40
2018-07-22T14:13:19.158Z,66.30
2018-07-22T14:15:48.117Z,67.00
2018-07-22T14:18:17.184Z,68.00
2018-07-22T14:20:46.748Z,68.50
2018-07-22T14:23:23.737Z,69.30
2018-07-22T14:25:52.792Z,71.50
2018-07-22T14:30:50.522Z,72.30
2018-07-22T14:33:19.578Z,74.00
2018-07-22T14:35:48.678Z,75.70
2018-07-22T14:38:17.833Z,76.50
2018-07-22T14:40:46.958Z,78.20
2018-07-22T14:43:15.950Z,79.30
2018-07-22T14:45:44.978Z,80.10
2018-07-22T14:48:13.953Z,81.00
2018-07-22T14:50:43.050Z,81.80
2018-07-22T14:53:12.071Z,82.20
2018-07-22T14:55:41.193Z,82.50
2018-07-22T14:58:10.189Z,82.80
2018-07-22T15:00:39.240Z,82.60
2018-07-22T15:03:08.446Z,82.60
2018-07-22T15:05:37.771Z,83.00
2018-07-22T15:08:06.883Z,83.20
2018-07-22T15:10:35.959Z,83.30
2018-07-22T15:13:05.083Z,83.50
2018-07-22T15:15:34.183Z,84.00
2018-07-22T15:18:03.191Z,83.50
2018-07-22T15:23:00.969Z,83.70
2018-07-22T15:25:30.105Z,84.00
2018-07-22T15:27:59.292Z,83.50
2018-07-22T15:30:28.971Z,83.10
2018-07-22T15:32:58.050Z,83.00
2018-07-22T15:35:27.131Z,83.20
2018-07-22T15:37:56.245Z,84.00
2018-07-22T15:40:25.433Z,84.50
2018-07-22T15:42:54.538Z,84.70
2018-07-22T15:45:23.543Z,84.60
2018-07-22T15:47:52.837Z,85.00
2018-07-22T15:50:22.551Z,86.00
2018-07-22T15:52:51.542Z,85.70
2018-07-22T15:55:20.854Z,86.00
2018-07-22T15:57:49.796Z,86.30
2018-07-22T16:00:18.931Z,86.70
2018-07-22T16:02:48.022Z,86.60
2018-07-22T16:05:17.232Z,86.00
2018-07-22T16:07:46.914Z,85.70
2018-07-22T16:10:15.952Z,85.70
2018-07-22T16:12:45.001Z,85.90
2018-07-22T16:15:14.398Z,86.20
2018-07-22T16:17:43.466Z,86.60
2018-07-22T16:20:12.499Z,86.80
2018-07-22T16:22:41.618Z,85.50
2018-07-22T16:25:11.591Z,86.50
2018-07-22T16:27:40.686Z,86.80
2018-07-22T16:30:09.726Z,87.20
2018-07-22T16:32:38.822Z,87.40
2018-07-22T16:35:07.896Z,87.30
2018-07-22T16:37:36.950Z,87.80
2018-07-22T16:40:05.917Z,87.70
2018-07-22T16:42:34.977Z,87.40
2018-07-22T16:45:03.948Z,87.60
2018-07-22T16:47:33.000Z,87.70
2018-07-22T16:50:02.106Z,87.20
2018-07-22T16:54:59.645Z,87.10
2018-07-22T16:57:28.715Z,87.20
2018-07-22T16:59:57.842Z,86.80
2018-07-22T17:02:26.899Z,86.90
2018-07-22T17:04:56.116Z,86.90
2018-07-22T17:07:25.190Z,87.10
2018-07-22T17:09:54.187Z,87.20
2018-07-22T17:12:23.263Z,86.50
2018-07-22T17:14:52.207Z,87.20
2018-07-22T17:17:21.212Z,87.30
2018-07-22T17:19:50.234Z,86.80
2018-07-22T17:24:47.884Z,87.30
2018-07-22T17:27:21.290Z,87.20
2018-07-22T17:29:50.459Z,87.30
2018-07-22T17:32:19.498Z,87.30
2018-07-22T17:34:48.695Z,87.90
2018-07-22T17:37:17.801Z,87.90
2018-07-22T17:39:46.794Z,87.90
2018-07-22T17:42:15.858Z,87.80
2018-07-22T17:44:44.807Z,87.60
2018-07-22T17:47:13.769Z,88.20
2018-07-22T17:49:42.717Z,88.20
2018-07-22T17:52:11.780Z,88.10
2018-07-22T17:54:40.854Z,88.10
2018-07-22T17:57:10.334Z,88.70
2018-07-22T17:59:39.334Z,88.40
2018-07-22T18:02:08.412Z,88.00
2018-07-22T18:04:37.403Z,89.30
2018-07-22T18:07:06.695Z,89.40
2018-07-22T18:09:35.733Z,89.60
2018-07-22T18:12:04.771Z,89.70
2018-07-22T18:14:33.761Z,89.60
2018-07-22T18:17:02.903Z,90.00
2018-07-22T18:19:31.971Z,90.00
2018-07-22T18:22:01.032Z,90.00
2018-07-22T18:24:30.054Z,90.10
2018-07-22T18:26:59.111Z,90.10
2018-07-22T18:29:28.872Z,90.30
2018-07-22T18:31:58.012Z,90.30
2018-07-22T18:34:27.037Z,90.60
2018-07-22T18:36:56.100Z,90.60
2018-07-22T18:39:25.288Z,90.60
2018-07-22T18:41:54.389Z,90.90
2018-07-22T18:44:23.492Z,90.90
2018-07-22T18:46:52.466Z,91.00
2018-07-22T18:49:21.847Z,90.90
2018-07-22T18:51:50.918Z,90.50
2018-07-22T18:54:20.013Z,90.70
2018-07-22T18:56:49.019Z,90.90
2018-07-22T18:59:18.260Z,91.00
2018-07-22T19:01:47.233Z,91.00
2018-07-22T19:04:16.245Z,90.90
2018-07-22T19:06:45.310Z,90.90
2018-07-22T19:09:14.404Z,91.10
2018-07-22T19:11:43.514Z,90.90
2018-07-22T19:14:12.591Z,91.00
2018-07-22T19:16:41.611Z,91.20
2018-07-22T19:19:10.686Z,91.30
2018-07-22T19:21:39.903Z,91.20
2018-07-22T19:24:08.955Z,91.00
2018-07-22T19:26:38.112Z,91.30
2018-07-22T19:29:07.292Z,91.20
2018-07-22T19:31:36.380Z,91.20
2018-07-22T19:34:05.530Z,91.40
2018-07-22T19:36:34.550Z,91.40
2018-07-22T19:39:03.656Z,91.50
2018-07-22T19:41:32.747Z,91.50
2018-07-22T19:44:01.783Z,91.60
2018-07-22T19:46:30.874Z,91.60
2018-07-22T19:48:59.955Z,91.70
2018-07-22T19:51:29.109Z,91.70
2018-07-22T19:53:58.255Z,91.70
2018-07-22T19:56:27.223Z,91.80
2018-07-22T19:58:56.234Z,91.80
2018-07-22T20:01:25.245Z,91.30
2018-07-22T20:03:54.229Z,91.60
2018-07-22T20:06:23.271Z,91.80
2018-07-22T20:08:52.312Z,91.70
2018-07-22T20:11:21.375Z,91.90
2018-07-22T20:13:50.413Z,91.90
2018-07-22T20:16:19.429Z,92.00
2018-07-22T20:18:49.654Z,91.90
2018-07-22T20:21:18.711Z,91.70
2018-07-22T20:23:47.797Z,91.80
2018-07-22T20:26:16.790Z,92.00
2018-07-22T20:28:45.965Z,91.70
2018-07-22T20:31:14.972Z,91.80
2018-07-22T20:33:44.091Z,91.90
2018-07-22T20:36:13.169Z,91.80
2018-07-22T20:38:42.094Z,91.70
2018-07-22T20:41:11.254Z,91.80
2018-07-22T20:43:40.531Z,91.80
2018-07-22T20:46:09.539Z,91.90
2018-07-22T20:48:38.593Z,91.90
2018-07-22T20:51:07.610Z,92.10
2018-07-22T20:53:36.615Z,92.10
2018-07-22T20:56:05.558Z,92.20
2018-07-22T20:58:34.776Z,91.90
2018-07-22T21:01:03.774Z,92.00
2018-07-22T21:03:32.812Z,92.20
2018-07-22T21:06:01.812Z,92.20
2018-07-22T21:08:30.815Z,92.20
2018-07-22T21:11:00.083Z,92.20
2018-07-22T21:13:29.098Z,92.30
2018-07-22T21:15:58.129Z,92.30
2018-07-22T21:18:27.219Z,92.30
2018-07-22T21:20:56.413Z,92.30
2018-07-22T21:23:25.424Z,92.40
2018-07-22T21:25:54.655Z,92.40
2018-07-22T21:28:23.732Z,92.40
2018-07-22T21:30:52.815Z,92.50
2018-07-22T21:33:21.871Z,92.40
2018-07-22T21:35:50.886Z,92.30
2018-07-22T21:38:19.910Z,92.40
2018-07-22T21:43:23.364Z,92.40
2018-07-22T21:45:52.367Z,92.40
2018-07-22T21:48:21.352Z,92.40
2018-07-22T21:50:50.412Z,92.50
2018-07-22T21:53:19.445Z,92.40
2018-07-22T21:55:48.477Z,92.40
2018-07-22T21:58:17.462Z,92.50
2018-07-22T22:00:46.455Z,92.50
2018-07-22T22:03:15.530Z,92.50
2018-07-22T22:05:44.670Z,92.40
2018-07-22T22:08:13.791Z,92.50
2018-07-22T22:10:42.760Z,92.30
2018-07-22T22:13:11.858Z,92.40
2018-07-22T22:15:40.830Z,92.50
2018-07-22T22:18:09.891Z,92.50
2018-07-22T22:20:38.961Z,92.50
2018-07-22T22:23:08.345Z,92.60
2018-07-22T22:25:37.345Z,92.60
2018-07-22T22:28:06.352Z,92.50
2018-07-22T22:30:35.401Z,92.60
2018-07-22T22:33:05.350Z,92.60
2018-07-22T22:35:34.350Z,92.50
2018-07-22T22:38:03.391Z,92.50
2018-07-22T22:40:32.353Z,92.50
2018-07-22T22:43:01.364Z,92.60
2018-07-22T22:45:30.438Z,92.60
2018-07-22T22:47:59.535Z,92.60
2018-07-22T22:50:28.608Z,92.60
2018-07-22T22:52:57.566Z,92.70
2018-07-22T22:55:27.051Z,92.70
2018-07-22T22:58:06.963Z,92.70
2018-07-22T23:00:35.895Z,92.50
2018-07-22T23:03:04.835Z,92.60
2018-07-22T23:05:33.852Z,92.70
2018-07-22T23:10:31.310Z,92.70
2018-07-22T23:13:00.272Z,92.80
2018-07-22T23:15:29.231Z,92.80
2018-07-22T23:17:58.214Z,92.80
2018-07-22T23:20:27.211Z,92.80
2018-07-22T23:25:24.751Z,92.80
2018-07-22T23:27:59.917Z,92.80
2018-07-22T23:30:28.890Z,92.90
2018-07-22T23:32:57.754Z,92.90
2018-07-22T23:35:26.651Z,92.90
2018-07-22T23:37:55.557Z,92.80
2018-07-22T23:40:24.553Z,92.80
2018-07-22T23:42:53.490Z,92.90
2018-07-22T23:45:22.433Z,92.90
2018-07-22T23:47:51.338Z,92.80
2018-07-22T23:50:20.332Z,92.80
2018-07-22T23:52:49.493Z,92.70
2018-07-22T23:55:18.413Z,92.90
2018-07-22T23:57:47.390Z,92.80
